createdAt,value
2019-01-17T00:00:41.957Z,88.23
2019-01-17T00:01:41.946Z,88.23
2019-01-17T00:02:41.935Z,88.12
2019-01-17T00:03:41.924Z,88.12
2019-01-17T00:04:41.915Z,88.02
2019-01-17T00:05:41.907Z,88.27
2019-01-17T00:06:41.892Z,88.23
2019-01-17T00:07:41.882Z,87.92
2019-01-17T00:08:41.875Z,88.23
2019-01-17T00:09:41.862Z,88.12
2019-01-17T00:10:41.851Z,88.06
2019-01-17T00:11:41.843Z,88.27
2019-01-17T00:12:41.831Z,88.48
2019-01-17T00:13:41.820Z,88.48
2019-01-17T00:14:41.809Z,88.48
2019-01-17T00:15:41.799Z,88.58
2019-01-17T00:16:41.787Z,88.37
2019-01-17T00:17:41.777Z,88.48
2019-01-17T00:18:41.767Z,88.27
2019-01-17T00:19:41.757Z,88.23
2019-01-17T00:20:41.747Z,88.02
2019-01-17T00:21:41.736Z,88.33
2019-01-17T00:22:41.724Z,88.12
2019-01-17T00:23:41.714Z,88.12
2019-01-17T00:24:41.702Z,87.85
2019-01-17T00:25:41.693Z,88.27
2019-01-17T00:26:41.682Z,88.37
2019-01-17T00:27:41.670Z,88.48
2019-01-17T00:28:41.661Z,88.37
2019-01-17T00:29:41.654Z,88.37
2019-01-17T00:30:41.639Z,88.58
2019-01-17T00:31:41.629Z,88.37
2019-01-17T00:32:41.617Z,88.27
2019-01-17T00:33:41.610Z,88.17
2019-01-17T00:34:41.597Z,88.12
2019-01-17T00:35:41.588Z,88.17
2019-01-17T00:36:41.576Z,87.85
2019-01-17T00:37:41.565Z,88.02
2019-01-17T00:38:41.554Z,88.02
2019-01-17T00:39:41.546Z,88.12
2019-01-17T00:40:41.533Z,88.17
2019-01-17T00:41:41.522Z,87.85
2019-01-17T00:42:41.511Z,88.12
2019-01-17T00:43:41.505Z,88.23
2019-01-17T00:44:41.494Z,87.71
2019-01-17T00:45:41.485Z,87.71
2019-01-17T00:46:41.470Z,87.40
2019-01-17T00:47:41.459Z,87.50
2019-01-17T00:48:41.448Z,87.65
2019-01-17T00:49:41.438Z,88.23
2019-01-17T00:50:41.429Z,88.02
2019-01-17T00:51:41.417Z,88.12
2019-01-17T00:52:41.406Z,88.12
2019-01-17T00:53:41.395Z,88.23
2019-01-17T00:54:41.386Z,88.02
2019-01-17T00:55:41.376Z,88.23
2019-01-17T00:56:41.364Z,87.71
2019-01-17T00:57:41.354Z,88.23
2019-01-17T00:58:41.346Z,88.33
2019-01-17T00:59:41.330Z,88.12
2019-01-17T01:00:41.321Z,87.71
2019-01-17T01:01:41.312Z,88.02
2019-01-17T01:02:41.300Z,88.23
2019-01-17T01:03:41.291Z,88.02
2019-01-17T01:04:41.283Z,88.12
2019-01-17T01:05:41.268Z,87.50
2019-01-17T01:06:41.260Z,87.60
2019-01-17T01:07:41.247Z,86.98
2019-01-17T01:08:41.237Z,86.98
2019-01-17T01:09:41.229Z,87.08
2019-01-17T01:10:41.217Z,87.19
2019-01-17T01:11:41.210Z,86.98
2019-01-17T01:12:41.194Z,87.19
2019-01-17T01:13:41.183Z,87.08
2019-01-17T01:14:41.174Z,87.29
2019-01-17T01:15:41.164Z,87.08
2019-01-17T01:16:41.152Z,87.19
2019-01-17T01:17:41.147Z,86.98
2019-01-17T01:18:41.132Z,87.08
2019-01-17T01:19:41.119Z,87.29
2019-01-17T01:20:41.110Z,87.02
2019-01-17T01:21:42.302Z,87.08
2019-01-17T01:22:41.088Z,87.29
2019-01-17T01:23:41.077Z,86.67
2019-01-17T01:24:41.068Z,86.52
2019-01-17T01:25:41.056Z,86.63
2019-01-17T01:26:41.049Z,86.25
2019-01-17T01:27:41.038Z,86.21
2019-01-17T01:28:41.024Z,86.21
2019-01-17T01:29:41.015Z,86.32
2019-01-17T01:30:41.004Z,86.21
2019-01-17T01:31:40.993Z,86.32
2019-01-17T01:32:40.982Z,86.21
2019-01-17T01:33:40.972Z,86.52
2019-01-17T01:34:40.974Z,86.32
2019-01-17T01:35:40.953Z,86.42
2019-01-17T01:36:40.941Z,86.32
2019-01-17T01:37:40.929Z,86.32
2019-01-17T01:38:40.920Z,86.32
2019-01-17T01:39:40.911Z,86.63
2019-01-17T01:40:40.899Z,86.42
2019-01-17T01:41:40.887Z,85.59
2019-01-17T01:42:40.877Z,85.59
2019-01-17T01:43:40.865Z,85.28
2019-01-17T01:44:40.855Z,85.38
2019-01-17T01:45:40.847Z,85.38
2019-01-17T01:46:40.839Z,84.75
2019-01-17T01:47:40.830Z,84.86
2019-01-17T01:48:40.817Z,85.28
2019-01-17T01:49:40.804Z,85.06
2019-01-17T01:50:40.795Z,84.92
2019-01-17T01:51:40.790Z,85.13
2019-01-17T01:52:40.771Z,85.06
2019-01-17T01:53:40.761Z,84.86
2019-01-17T01:54:40.753Z,85.13
2019-01-17T01:55:40.741Z,84.75
2019-01-17T01:56:40.730Z,84.96
2019-01-17T01:57:40.719Z,84.96
2019-01-17T01:58:40.708Z,85.28
2019-01-17T01:59:40.701Z,85.06
2019-01-17T02:00:40.689Z,85.06
2019-01-17T02:01:40.679Z,84.72
2019-01-17T02:02:40.668Z,84.92
2019-01-17T02:03:40.656Z,84.92
2019-01-17T02:04:40.645Z,85.03
2019-01-17T02:05:40.635Z,84.72
2019-01-17T02:06:40.628Z,85.13
2019-01-17T02:07:40.614Z,84.82
2019-01-17T02:08:40.642Z,84.72
2019-01-17T02:09:40.591Z,84.82
2019-01-17T02:10:40.583Z,84.72
2019-01-17T02:11:40.571Z,84.92
2019-01-17T02:12:40.563Z,85.17
2019-01-17T02:13:40.555Z,85.13
2019-01-17T02:14:40.541Z,85.03
2019-01-17T02:15:40.531Z,85.13
2019-01-17T02:16:40.518Z,84.92
2019-01-17T02:17:40.508Z,84.92
2019-01-17T02:18:40.498Z,85.06
2019-01-17T02:19:40.493Z,85.38
2019-01-17T02:20:40.477Z,84.75
2019-01-17T02:21:40.474Z,84.82
2019-01-17T02:22:40.455Z,84.44
2019-01-17T02:23:40.447Z,84.72
2019-01-17T02:24:40.433Z,85.17
2019-01-17T02:25:40.423Z,84.92
2019-01-17T02:26:40.415Z,85.13
2019-01-17T02:27:40.401Z,84.96
2019-01-17T02:28:40.391Z,85.28
2019-01-17T02:29:40.384Z,85.38
2019-01-17T02:30:40.369Z,85.38
2019-01-17T02:31:40.359Z,85.49
2019-01-17T02:32:40.354Z,85.59
2019-01-17T02:33:40.338Z,85.49
2019-01-17T02:34:40.329Z,85.17
2019-01-17T02:35:40.317Z,84.72
2019-01-17T02:36:40.307Z,85.13
2019-01-17T02:37:40.297Z,85.13
2019-01-17T02:38:40.289Z,85.24
2019-01-17T02:39:40.275Z,84.72
2019-01-17T02:40:40.266Z,84.58
2019-01-17T02:41:40.256Z,84.72
2019-01-17T02:42:40.242Z,84.51
2019-01-17T02:43:40.239Z,84.61
2019-01-17T02:44:40.231Z,84.27
2019-01-17T02:45:40.218Z,83.84
2019-01-17T02:46:40.203Z,83.29
2019-01-17T02:47:40.192Z,83.53
2019-01-17T02:48:40.181Z,83.95
2019-01-17T02:49:40.169Z,83.60
2019-01-17T02:50:40.165Z,83.70
2019-01-17T02:51:40.150Z,83.64
2019-01-17T02:52:40.141Z,83.39
2019-01-17T02:53:40.131Z,83.60
2019-01-17T02:54:40.117Z,83.18
2019-01-17T02:55:40.105Z,83.91
2019-01-17T02:56:40.097Z,82.98
2019-01-17T02:57:40.084Z,82.87
2019-01-17T02:58:40.075Z,82.87
2019-01-17T02:59:40.064Z,82.98
2019-01-17T03:00:40.055Z,82.87
2019-01-17T03:01:40.046Z,82.84
2019-01-17T03:02:40.033Z,82.73
2019-01-17T03:03:40.022Z,82.46
2019-01-17T03:04:40.011Z,82.35
2019-01-17T03:05:40.002Z,82.63
2019-01-17T03:06:39.998Z,82.11
2019-01-17T03:07:39.990Z,82.11
2019-01-17T03:08:39.971Z,81.59
2019-01-17T03:09:39.958Z,81.80
2019-01-17T03:10:39.947Z,82.01
2019-01-17T03:11:39.937Z,81.97
2019-01-17T03:12:39.928Z,81.38
2019-01-17T03:13:39.917Z,81.18
2019-01-17T03:14:39.903Z,81.14
2019-01-17T03:15:39.895Z,81.45
2019-01-17T03:16:39.886Z,81.80
2019-01-17T03:17:39.873Z,81.14
2019-01-17T03:18:39.862Z,81.35
2019-01-17T03:19:39.852Z,81.45
2019-01-17T03:20:39.842Z,81.45
2019-01-17T03:21:39.831Z,81.14
2019-01-17T03:22:39.821Z,80.73
2019-01-17T03:23:39.810Z,80.73
2019-01-17T03:24:43.141Z,80.21
2019-01-17T03:25:39.787Z,80.83
2019-01-17T03:26:39.778Z,80.41
2019-01-17T03:27:39.768Z,80.27
2019-01-17T03:28:39.758Z,80.62
2019-01-17T03:29:39.750Z,80.52
2019-01-17T03:30:39.742Z,80.62
2019-01-17T03:31:39.729Z,80.52
2019-01-17T03:32:39.720Z,80.06
2019-01-17T03:33:39.703Z,80.37
2019-01-17T03:34:39.696Z,80.06
2019-01-17T03:35:39.682Z,80.37
2019-01-17T03:36:39.671Z,79.85
2019-01-17T03:37:39.661Z,80.06
2019-01-17T03:38:39.650Z,79.85
2019-01-17T03:39:39.639Z,80.06
2019-01-17T03:40:39.629Z,79.85
2019-01-17T03:41:39.620Z,79.85
2019-01-17T03:42:39.608Z,79.85
2019-01-17T03:43:39.596Z,79.75
2019-01-17T03:44:39.589Z,79.65
2019-01-17T03:45:39.575Z,79.65
2019-01-17T03:46:39.565Z,79.85
2019-01-17T03:47:39.558Z,79.85
2019-01-17T03:48:39.550Z,80.06
2019-01-17T03:49:39.535Z,79.85
2019-01-17T03:50:39.524Z,79.96
2019-01-17T03:51:39.519Z,80.06
2019-01-17T03:52:39.504Z,79.75
2019-01-17T03:53:39.493Z,79.55
2019-01-17T03:54:39.488Z,79.34
2019-01-17T03:55:39.470Z,78.68
2019-01-17T03:56:39.462Z,79.10
2019-01-17T03:57:39.448Z,78.68
2019-01-17T03:58:39.440Z,79.20
2019-01-17T03:59:39.431Z,79.41
2019-01-17T04:00:39.416Z,79.55
2019-01-17T04:01:39.410Z,79.30
2019-01-17T04:02:39.398Z,78.99
2019-01-17T04:03:39.385Z,79.41
2019-01-17T04:04:39.376Z,79.44
2019-01-17T04:05:39.382Z,79.51
2019-01-17T04:06:39.356Z,79.61
2019-01-17T04:07:39.347Z,79.51
2019-01-17T04:08:39.333Z,79.51
2019-01-17T04:09:39.322Z,80.02
2019-01-17T04:10:39.313Z,80.13
2019-01-17T04:11:39.300Z,79.71
2019-01-17T04:12:39.289Z,79.61
2019-01-17T04:13:39.277Z,79.30
2019-01-17T04:14:39.276Z,79.61
2019-01-17T04:15:39.260Z,78.99
2019-01-17T04:16:39.248Z,79.61
2019-01-17T04:17:39.238Z,79.61
2019-01-17T04:18:39.227Z,79.82
2019-01-17T04:19:39.234Z,79.61
2019-01-17T04:20:39.208Z,79.51
2019-01-17T04:21:39.194Z,79.51
2019-01-17T04:22:39.186Z,79.92
2019-01-17T04:23:39.176Z,80.02
2019-01-17T04:24:39.163Z,79.51
2019-01-17T04:25:39.151Z,80.02
2019-01-17T04:26:39.142Z,79.92
2019-01-17T04:27:39.133Z,80.65
2019-01-17T04:28:39.122Z,80.54
2019-01-17T04:29:39.109Z,80.33
2019-01-17T04:30:39.100Z,80.23
2019-01-17T04:31:39.088Z,81.27
2019-01-17T04:32:39.080Z,81.48
2019-01-17T04:33:39.067Z,81.48
2019-01-17T04:34:39.061Z,80.89
2019-01-17T04:35:39.045Z,80.85
2019-01-17T04:36:39.035Z,80.33
2019-01-17T04:37:39.024Z,80.54
2019-01-17T04:38:39.015Z,80.44
2019-01-17T04:39:39.005Z,80.85
2019-01-17T04:40:38.994Z,80.85
2019-01-17T04:41:38.987Z,80.65
2019-01-17T04:42:38.973Z,81.06
2019-01-17T04:43:38.963Z,80.75
2019-01-17T04:44:38.947Z,81.58
2019-01-17T04:45:38.939Z,81.16
2019-01-17T04:46:38.928Z,81.68
2019-01-17T04:47:38.921Z,81.79
2019-01-17T04:48:38.908Z,81.37
2019-01-17T04:49:38.895Z,81.16
2019-01-17T04:50:38.886Z,81.27
2019-01-17T04:51:38.881Z,80.85
2019-01-17T04:52:38.863Z,81.16
2019-01-17T04:53:38.854Z,81.06
2019-01-17T04:54:38.843Z,80.33
2019-01-17T04:55:38.834Z,80.54
2019-01-17T04:56:38.822Z,80.65
2019-01-17T04:57:38.813Z,80.75
2019-01-17T04:58:38.802Z,80.30
2019-01-17T04:59:38.790Z,80.30
2019-01-17T05:00:38.780Z,80.65
2019-01-17T05:01:38.767Z,80.40
2019-01-17T05:02:38.759Z,80.65
2019-01-17T05:03:38.751Z,80.44
2019-01-17T05:04:38.737Z,80.51
2019-01-17T05:05:38.729Z,79.78
2019-01-17T05:06:38.787Z,80.30
2019-01-17T05:07:38.707Z,80.30
2019-01-17T05:08:38.702Z,80.61
2019-01-17T05:09:38.690Z,80.51
2019-01-17T05:10:38.673Z,80.51
2019-01-17T05:11:38.670Z,80.09
2019-01-17T05:12:38.661Z,80.61
2019-01-17T05:13:38.641Z,80.61
2019-01-17T05:14:38.630Z,80.19
2019-01-17T05:15:38.623Z,80.23
2019-01-17T05:16:38.610Z,80.51
2019-01-17T05:17:38.600Z,80.51
2019-01-17T05:18:38.591Z,80.30
2019-01-17T05:19:38.580Z,80.40
2019-01-17T05:20:38.567Z,80.51
2019-01-17T05:21:38.558Z,80.40
2019-01-17T05:22:38.545Z,80.92
2019-01-17T05:23:38.534Z,80.51
2019-01-17T05:24:38.524Z,80.61
2019-01-17T05:25:38.512Z,81.02
2019-01-17T05:26:38.502Z,80.51
2019-01-17T05:27:38.494Z,80.61
2019-01-17T05:28:38.480Z,80.51
2019-01-17T05:29:38.471Z,80.61
2019-01-17T05:30:38.466Z,81.13
2019-01-17T05:31:38.448Z,81.02
2019-01-17T05:32:38.440Z,80.30
2019-01-17T05:33:38.429Z,80.92
2019-01-17T05:34:39.574Z,81.02
2019-01-17T05:35:38.416Z,80.71
2019-01-17T05:36:38.397Z,80.92
2019-01-17T05:37:38.386Z,81.02
2019-01-17T05:38:38.373Z,81.02
2019-01-17T05:39:38.364Z,81.09
2019-01-17T05:40:38.724Z,80.99
2019-01-17T05:41:38.347Z,80.88
2019-01-17T05:42:38.336Z,81.30
2019-01-17T05:43:38.321Z,80.78
2019-01-17T05:44:38.311Z,81.30
2019-01-17T05:45:38.299Z,81.09
2019-01-17T05:46:38.289Z,80.88
2019-01-17T05:47:38.279Z,81.20
2019-01-17T05:48:38.269Z,81.09
2019-01-17T05:49:38.256Z,80.99
2019-01-17T05:50:38.252Z,80.88
2019-01-17T05:51:38.240Z,80.88
2019-01-17T05:52:38.227Z,80.78
2019-01-17T05:53:38.219Z,80.78
2019-01-17T05:54:38.205Z,80.99
2019-01-17T05:55:38.192Z,80.99
2019-01-17T05:56:38.181Z,80.78
2019-01-17T05:57:38.172Z,80.47
2019-01-17T05:58:38.161Z,80.95
2019-01-17T05:59:38.152Z,80.57
2019-01-17T06:00:38.148Z,80.57
2019-01-17T06:01:38.129Z,80.47
2019-01-17T06:02:38.123Z,80.33
2019-01-17T06:03:38.107Z,80.57
2019-01-17T06:04:38.095Z,80.43
2019-01-17T06:05:38.085Z,80.43
2019-01-17T06:06:38.073Z,80.05
2019-01-17T06:07:38.063Z,80.33
2019-01-17T06:08:38.053Z,80.43
2019-01-17T06:09:38.042Z,80.33
2019-01-17T06:10:38.037Z,81.26
2019-01-17T06:11:38.022Z,80.85
2019-01-17T06:12:38.009Z,80.85
2019-01-17T06:13:38.000Z,80.95
2019-01-17T06:14:37.990Z,81.09
2019-01-17T06:15:37.978Z,80.64
2019-01-17T06:16:37.977Z,80.95
2019-01-17T06:17:37.967Z,81.16
2019-01-17T06:18:37.949Z,80.95
2019-01-17T06:19:37.935Z,80.74
2019-01-17T06:20:37.926Z,80.95
2019-01-17T06:21:37.913Z,81.26
2019-01-17T06:22:37.904Z,80.85
2019-01-17T06:23:37.894Z,81.16
2019-01-17T06:24:37.886Z,81.78
2019-01-17T06:25:37.876Z,82.23
2019-01-17T06:26:37.862Z,81.68
2019-01-17T06:27:37.848Z,81.37
2019-01-17T06:28:37.837Z,82.03
2019-01-17T06:29:37.828Z,81.68
2019-01-17T06:30:37.818Z,81.78
2019-01-17T06:31:37.806Z,81.71
2019-01-17T06:32:37.839Z,82.09
2019-01-17T06:33:37.786Z,82.19
2019-01-17T06:34:37.778Z,81.88
2019-01-17T06:35:37.764Z,82.19
2019-01-17T06:36:37.755Z,81.68
2019-01-17T06:37:37.742Z,81.88
2019-01-17T06:38:37.731Z,81.68
2019-01-17T06:39:37.720Z,81.78
2019-01-17T06:40:37.712Z,81.99
2019-01-17T06:41:37.699Z,82.09
2019-01-17T06:42:37.688Z,82.09
2019-01-17T06:43:37.682Z,82.29
2019-01-17T06:44:37.672Z,82.09
2019-01-17T06:45:37.657Z,82.40
2019-01-17T06:46:37.647Z,82.09
2019-01-17T06:47:37.637Z,82.40
2019-01-17T06:48:37.624Z,82.50
2019-01-17T06:49:37.618Z,82.40
2019-01-17T06:50:37.604Z,81.88
2019-01-17T06:51:37.591Z,81.95
2019-01-17T06:52:37.587Z,81.84
2019-01-17T06:53:37.570Z,81.78
2019-01-17T06:54:37.563Z,81.57
2019-01-17T06:55:37.551Z,81.64
2019-01-17T06:56:37.539Z,81.43
2019-01-17T06:57:37.528Z,80.91
2019-01-17T06:58:37.517Z,81.43
2019-01-17T06:59:37.507Z,81.54
2019-01-17T07:00:37.497Z,81.33
2019-01-17T07:01:37.485Z,81.43
2019-01-17T07:02:37.475Z,81.43
2019-01-17T07:03:37.466Z,81.64
2019-01-17T07:04:37.455Z,81.64
2019-01-17T07:05:37.443Z,81.64
2019-01-17T07:06:37.433Z,81.54
2019-01-17T07:07:37.422Z,81.19
2019-01-17T07:08:37.409Z,81.33
2019-01-17T07:09:37.402Z,81.23
2019-01-17T07:10:37.388Z,80.71
2019-01-17T07:11:37.379Z,81.12
2019-01-17T07:12:37.367Z,81.64
2019-01-17T07:13:37.358Z,81.64
2019-01-17T07:14:37.348Z,81.43
2019-01-17T07:15:37.337Z,81.12
2019-01-17T07:16:37.329Z,80.98
2019-01-17T07:17:37.316Z,81.23
2019-01-17T07:18:37.306Z,81.64
2019-01-17T07:19:37.294Z,80.77
2019-01-17T07:20:37.283Z,81.95
2019-01-17T07:21:37.273Z,81.54
2019-01-17T07:22:37.264Z,81.84
2019-01-17T07:23:37.252Z,81.74
2019-01-17T07:24:37.241Z,82.15
2019-01-17T07:25:40.974Z,82.15
2019-01-17T07:26:37.220Z,82.15
2019-01-17T07:27:37.208Z,82.26
2019-01-17T07:28:37.204Z,82.67
2019-01-17T07:29:37.189Z,82.78
2019-01-17T07:30:37.175Z,82.98
2019-01-17T07:31:37.168Z,83.09
2019-01-17T07:32:37.155Z,82.67
2019-01-17T07:33:37.144Z,82.78
2019-01-17T07:34:37.133Z,83.09
2019-01-17T07:35:37.121Z,82.98
2019-01-17T07:36:37.113Z,83.40
2019-01-17T07:37:37.104Z,83.09
2019-01-17T07:38:37.091Z,83.50
2019-01-17T07:39:37.096Z,83.29
2019-01-17T07:40:37.083Z,83.29
2019-01-17T07:41:37.060Z,83.29
2019-01-17T07:42:37.047Z,83.09
2019-01-17T07:43:37.040Z,83.09
2019-01-17T07:44:37.026Z,82.98
2019-01-17T07:45:37.015Z,82.36
2019-01-17T07:46:37.007Z,82.98
2019-01-17T07:47:36.995Z,82.36
2019-01-17T07:48:36.984Z,82.64
2019-01-17T07:49:36.975Z,82.26
2019-01-17T07:50:36.964Z,82.36
2019-01-17T07:51:36.951Z,82.67
2019-01-17T07:52:36.939Z,82.57
2019-01-17T07:53:36.930Z,82.53
2019-01-17T07:54:36.920Z,82.36
2019-01-17T07:55:36.910Z,82.43
2019-01-17T07:56:36.898Z,82.01
2019-01-17T07:57:36.889Z,81.81
2019-01-17T07:58:36.877Z,82.12
2019-01-17T07:59:36.867Z,82.01
2019-01-17T08:00:36.856Z,82.12
2019-01-17T08:01:36.845Z,82.53
2019-01-17T08:02:36.836Z,82.53
2019-01-17T08:03:36.822Z,82.88
2019-01-17T08:04:36.815Z,81.95
2019-01-17T08:05:36.801Z,82.95
2019-01-17T08:06:36.791Z,83.09
2019-01-17T08:07:36.781Z,82.98
2019-01-17T08:08:36.769Z,84.12
2019-01-17T08:09:36.761Z,83.98
2019-01-17T08:10:36.754Z,84.43
2019-01-17T08:11:36.743Z,84.01
2019-01-17T08:12:36.729Z,83.50
2019-01-17T08:13:36.723Z,83.36
2019-01-17T08:14:36.707Z,82.53
2019-01-17T08:15:36.695Z,83.56
2019-01-17T08:16:36.686Z,82.43
2019-01-17T08:17:36.675Z,82.22
2019-01-17T08:18:36.662Z,82.64
2019-01-17T08:19:36.652Z,83.56
2019-01-17T08:20:36.647Z,83.46
2019-01-17T08:21:36.631Z,83.05
2019-01-17T08:22:36.622Z,84.60
2019-01-17T08:23:36.609Z,84.01
2019-01-17T08:24:36.608Z,83.40
2019-01-17T08:25:36.588Z,83.29
2019-01-17T08:26:36.577Z,83.05
2019-01-17T08:27:36.569Z,83.05
2019-01-17T08:28:36.557Z,83.46
2019-01-17T08:29:36.549Z,83.46
2019-01-17T08:30:36.536Z,82.74
2019-01-17T08:31:36.531Z,82.64
2019-01-17T08:32:36.511Z,82.32
2019-01-17T08:33:36.502Z,82.29
2019-01-17T08:34:36.492Z,82.53
2019-01-17T08:35:36.482Z,82.29
2019-01-17T08:36:36.470Z,82.43
2019-01-17T08:37:36.459Z,82.22
2019-01-17T08:38:36.450Z,82.50
2019-01-17T08:39:36.441Z,82.29
2019-01-17T08:40:36.431Z,81.98
2019-01-17T08:41:36.419Z,81.67
2019-01-17T08:42:36.407Z,81.56
2019-01-17T08:43:36.397Z,81.67
2019-01-17T08:44:36.385Z,81.52
2019-01-17T08:45:36.383Z,81.25
2019-01-17T08:46:36.364Z,80.63
2019-01-17T08:47:36.355Z,81.35
2019-01-17T08:48:36.343Z,81.15
2019-01-17T08:49:36.332Z,81.56
2019-01-17T08:50:36.328Z,81.15
2019-01-17T08:51:36.312Z,81.05
2019-01-17T08:52:36.301Z,80.63
2019-01-17T08:53:36.293Z,80.84
2019-01-17T08:54:36.277Z,81.15
2019-01-17T08:55:36.270Z,80.84
2019-01-17T08:56:36.257Z,81.15
2019-01-17T08:57:36.248Z,81.15
2019-01-17T08:58:36.235Z,81.35
2019-01-17T08:59:36.228Z,81.35
2019-01-17T09:00:36.219Z,82.60
2019-01-17T09:01:36.205Z,83.46
2019-01-17T09:02:36.192Z,83.67
2019-01-17T09:03:36.186Z,84.29
2019-01-17T09:04:36.173Z,84.70
2019-01-17T09:05:36.160Z,84.60
2019-01-17T09:06:36.149Z,85.94
2019-01-17T09:07:36.140Z,85.63
2019-01-17T09:08:36.129Z,86.05
2019-01-17T09:09:36.117Z,86.05
2019-01-17T09:10:36.108Z,85.84
2019-01-17T09:11:36.100Z,85.84
2019-01-17T09:12:36.085Z,85.94
2019-01-17T09:13:36.075Z,85.91
2019-01-17T09:14:36.067Z,85.02
2019-01-17T09:15:36.057Z,84.77
2019-01-17T09:16:36.044Z,84.60
2019-01-17T09:17:36.035Z,84.08
2019-01-17T09:18:36.022Z,83.84
2019-01-17T09:19:36.011Z,83.84
2019-01-17T09:20:36.002Z,83.84
2019-01-17T09:21:35.990Z,83.32
2019-01-17T09:22:35.982Z,83.25
2019-01-17T09:23:35.972Z,83.01
2019-01-17T09:24:35.957Z,83.42
2019-01-17T09:25:35.948Z,82.70
2019-01-17T09:26:35.937Z,82.60
2019-01-17T09:27:35.931Z,82.70
2019-01-17T09:28:35.917Z,83.42
2019-01-17T09:29:35.909Z,83.32
2019-01-17T09:30:35.893Z,83.01
2019-01-17T09:31:35.884Z,83.01
2019-01-17T09:32:35.873Z,83.01
2019-01-17T09:33:35.862Z,82.29
2019-01-17T09:34:35.849Z,82.18
2019-01-17T09:35:35.839Z,82.29
2019-01-17T09:36:35.830Z,81.98
2019-01-17T09:37:35.819Z,82.04
2019-01-17T09:38:35.806Z,81.42
2019-01-17T09:39:35.804Z,81.84
2019-01-17T09:40:35.786Z,81.73
2019-01-17T09:41:35.776Z,81.52
2019-01-17T09:42:35.765Z,81.63
2019-01-17T09:43:35.757Z,81.63
2019-01-17T09:44:35.749Z,81.73
2019-01-17T09:45:35.779Z,80.90
2019-01-17T09:46:35.747Z,81.11
2019-01-17T09:47:35.713Z,80.70
2019-01-17T09:48:35.705Z,81.63
2019-01-17T09:49:35.692Z,81.01
2019-01-17T09:50:35.692Z,80.90
2019-01-17T09:51:35.678Z,81.01
2019-01-17T09:52:35.697Z,81.01
2019-01-17T09:53:35.649Z,81.11
2019-01-17T09:54:35.637Z,80.15
2019-01-17T09:55:35.635Z,79.42
2019-01-17T09:56:35.618Z,79.52
2019-01-17T09:57:35.603Z,79.42
2019-01-17T09:58:35.593Z,79.32
2019-01-17T09:59:35.585Z,78.66
2019-01-17T10:00:35.582Z,78.05
2019-01-17T10:01:35.562Z,76.94
2019-01-17T10:02:35.552Z,76.84
2019-01-17T10:03:35.543Z,77.84
2019-01-17T10:04:35.529Z,77.63
2019-01-17T10:05:35.521Z,77.22
2019-01-17T10:06:35.509Z,77.04
2019-01-17T10:07:35.497Z,76.94
2019-01-17T10:08:35.486Z,77.15
2019-01-17T10:09:35.475Z,77.04
2019-01-17T10:10:35.466Z,77.46
2019-01-17T10:11:35.459Z,75.60
2019-01-17T10:12:35.443Z,75.70
2019-01-17T10:13:35.435Z,77.25
2019-01-17T10:14:35.421Z,76.73
2019-01-17T10:15:35.417Z,75.49
2019-01-17T10:16:35.402Z,75.29
2019-01-17T10:17:35.389Z,75.81
2019-01-17T10:18:35.379Z,77.25
2019-01-17T10:19:35.370Z,75.91
2019-01-17T10:20:35.359Z,76.01
2019-01-17T10:21:35.353Z,75.81
2019-01-17T10:22:35.338Z,75.91
2019-01-17T10:23:35.328Z,76.64
2019-01-17T10:24:35.314Z,77.04
2019-01-17T10:25:35.306Z,76.84
2019-01-17T10:26:35.294Z,76.53
2019-01-17T10:27:35.283Z,76.90
2019-01-17T10:28:35.274Z,75.87
2019-01-17T10:29:35.262Z,75.98
2019-01-17T10:30:35.250Z,74.88
2019-01-17T10:31:35.240Z,74.98
2019-01-17T10:32:35.232Z,75.49
2019-01-17T10:33:35.218Z,75.98
2019-01-17T10:34:35.207Z,75.36
2019-01-17T10:35:35.199Z,75.70
2019-01-17T10:36:35.188Z,75.46
2019-01-17T10:37:35.178Z,76.39
2019-01-17T10:38:35.165Z,75.05
2019-01-17T10:39:35.156Z,75.46
2019-01-17T10:40:35.472Z,75.15
2019-01-17T10:41:35.135Z,75.15
2019-01-17T10:42:35.124Z,76.70
2019-01-17T10:43:35.113Z,75.15
2019-01-17T10:44:35.107Z,75.05
2019-01-17T10:45:35.113Z,76.60
2019-01-17T10:46:35.090Z,75.26
2019-01-17T10:47:35.081Z,75.43
2019-01-17T10:48:35.059Z,75.12
2019-01-17T10:49:35.049Z,74.91
2019-01-17T10:50:35.039Z,74.60
2019-01-17T10:51:35.025Z,74.08
2019-01-17T10:52:35.017Z,74.50
2019-01-17T10:53:35.006Z,73.85
2019-01-17T10:54:34.995Z,74.08
2019-01-17T10:55:34.985Z,73.77
2019-01-17T10:56:41.030Z,74.60
2019-01-17T10:57:35.962Z,74.40
2019-01-17T10:58:34.952Z,73.77
2019-01-17T10:59:34.945Z,73.16
2019-01-17T11:00:34.932Z,73.26
2019-01-17T11:01:34.920Z,73.26
2019-01-17T11:02:34.908Z,73.16
2019-01-17T11:03:34.901Z,73.26
2019-01-17T11:04:34.887Z,72.64
2019-01-17T11:05:34.884Z,72.95
2019-01-17T11:06:34.866Z,73.02
2019-01-17T11:07:34.857Z,72.71
2019-01-17T11:08:34.845Z,72.30
2019-01-17T11:09:34.835Z,72.23
2019-01-17T11:10:34.825Z,72.30
2019-01-17T11:11:34.814Z,72.30
2019-01-17T11:12:34.801Z,72.50
2019-01-17T11:13:34.793Z,71.99
2019-01-17T11:14:34.782Z,72.16
2019-01-17T11:15:34.774Z,72.19
2019-01-17T11:16:34.758Z,72.37
2019-01-17T11:17:34.751Z,72.06
2019-01-17T11:18:34.740Z,71.85
2019-01-17T11:19:34.729Z,72.27
2019-01-17T11:20:34.716Z,72.16
2019-01-17T11:21:34.706Z,71.10
2019-01-17T11:22:34.696Z,71.72
2019-01-17T11:23:34.686Z,71.51
2019-01-17T11:24:34.673Z,70.89
2019-01-17T11:25:34.663Z,69.76
2019-01-17T11:26:34.664Z,70.89
2019-01-17T11:27:34.641Z,70.58
2019-01-17T11:28:34.634Z,69.65
2019-01-17T11:29:34.620Z,70.55
2019-01-17T11:30:34.611Z,69.93
2019-01-17T11:31:34.600Z,69.14
2019-01-17T11:32:34.588Z,70.28
2019-01-17T11:33:34.579Z,69.96
2019-01-17T11:34:34.571Z,70.51
2019-01-17T11:35:34.554Z,70.07
2019-01-17T11:36:34.544Z,70.48
2019-01-17T11:37:34.532Z,70.17
2019-01-17T11:38:34.522Z,69.96
2019-01-17T11:39:34.513Z,69.11
2019-01-17T11:40:34.501Z,68.66
2019-01-17T11:41:34.488Z,67.33
2019-01-17T11:42:34.478Z,67.94
2019-01-17T11:43:34.467Z,67.05
2019-01-17T11:44:34.455Z,67.63
2019-01-17T11:45:34.445Z,67.77
2019-01-17T11:46:34.433Z,67.49
2019-01-17T11:47:34.435Z,67.49
2019-01-17T11:48:34.413Z,68.11
2019-01-17T11:49:34.403Z,68.35
2019-01-17T11:50:34.390Z,69.07
2019-01-17T11:51:34.383Z,69.20
2019-01-17T11:52:35.297Z,68.69
2019-01-17T11:53:35.666Z,69.41
2019-01-17T11:54:36.021Z,69.41
2019-01-17T11:55:35.591Z,69.75
2019-01-17T11:56:40.727Z,69.82
2019-01-17T11:57:35.316Z,70.96
2019-01-17T11:58:34.308Z,70.23
2019-01-17T11:59:34.300Z,70.44
2019-01-17T12:00:34.287Z,69.85
2019-01-17T12:01:34.274Z,70.17
2019-01-17T12:02:39.109Z,70.99
2019-01-17T12:03:35.251Z,70.89
2019-01-17T12:04:34.247Z,71.71
2019-01-17T12:05:34.233Z,71.51
2019-01-17T12:06:34.224Z,71.51
2019-01-17T12:07:34.209Z,71.41
2019-01-17T12:08:34.199Z,70.99
2019-01-17T12:09:34.189Z,71.61
2019-01-17T12:10:34.178Z,71.92
2019-01-17T12:11:34.168Z,71.20
2019-01-17T12:12:34.159Z,71.47
2019-01-17T12:13:34.145Z,71.37
2019-01-17T12:14:34.134Z,70.44
2019-01-17T12:15:34.123Z,70.23
2019-01-17T12:16:34.117Z,70.10
2019-01-17T12:17:34.105Z,70.10
2019-01-17T12:18:34.094Z,69.27
2019-01-17T12:19:34.084Z,69.51
2019-01-17T12:20:34.386Z,69.72
2019-01-17T12:21:34.060Z,70.03
2019-01-17T12:22:34.052Z,69.59
2019-01-17T12:23:34.039Z,68.79
2019-01-17T12:24:34.033Z,68.59
2019-01-17T12:25:34.021Z,69.51
2019-01-17T12:26:34.283Z,69.10
2019-01-17T12:27:34.353Z,69.10
2019-01-17T12:28:33.985Z,69.59
2019-01-17T12:29:33.978Z,68.21
2019-01-17T12:30:33.965Z,67.83
2019-01-17T12:31:33.953Z,67.76
2019-01-17T12:32:33.948Z,68.79
2019-01-17T12:33:33.935Z,66.80
2019-01-17T12:34:33.924Z,67.00
2019-01-17T12:35:34.265Z,68.48
2019-01-17T12:36:33.900Z,68.59
2019-01-17T12:37:33.891Z,68.27
2019-01-17T12:38:33.878Z,67.63
2019-01-17T12:39:33.870Z,68.14
2019-01-17T12:40:33.859Z,67.21
2019-01-17T12:41:33.848Z,64.93
2019-01-17T12:42:33.837Z,65.61
2019-01-17T12:43:33.825Z,65.84
2019-01-17T12:44:33.816Z,66.97
2019-01-17T12:45:33.805Z,66.49
2019-01-17T12:46:33.794Z,65.77
2019-01-17T12:47:33.784Z,65.88
2019-01-17T12:48:33.772Z,66.28
2019-01-17T12:49:33.763Z,66.80
2019-01-17T12:50:33.753Z,65.91
2019-01-17T12:51:33.744Z,67.21
2019-01-17T12:52:33.731Z,66.63